createdAt,value
2019-03-19T00:00:12.173Z,4.30
2019-03-19T00:02:40.514Z,4.30
2019-03-19T00:05:06.900Z,4.30
2019-03-19T00:07:33.334Z,4.40
2019-03-19T00:09:59.785Z,4.40
2019-03-19T00:12:27.203Z,4.50
2019-03-19T00:14:53.640Z,4.50
2019-03-19T00:17:20.046Z,4.50
2019-03-19T00:19:46.459Z,4.60
2019-03-19T00:22:12.882Z,4.60
2019-03-19T00:24:39.307Z,4.60
2019-03-19T00:27:05.707Z,4.60
2019-03-19T00:29:32.124Z,4.60
2019-03-19T00:31:58.558Z,4.60
2019-03-19T00:34:24.962Z,4.60
2019-03-19T00:36:51.334Z,4.60
2019-03-19T00:39:17.831Z,4.60
2019-03-19T00:41:44.212Z,4.60
2019-03-19T00:44:10.695Z,4.60
2019-03-19T00:46:37.149Z,4.60
2019-03-19T00:49:03.642Z,4.60
2019-03-19T00:51:30.107Z,4.70
2019-03-19T00:53:56.625Z,4.60
2019-03-19T00:56:23.128Z,4.60
2019-03-19T00:58:49.508Z,4.50
2019-03-19T01:01:15.960Z,4.50
2019-03-19T01:03:42.401Z,4.40
2019-03-19T01:06:08.849Z,4.30
2019-03-19T01:08:35.212Z,4.30
2019-03-19T01:11:01.608Z,4.20
2019-03-19T01:13:28.007Z,4.20
2019-03-19T01:15:54.456Z,4.10
2019-03-19T01:18:20.771Z,4.00
2019-03-19T01:20:47.176Z,4.00
2019-03-19T01:23:13.648Z,4.00
2019-03-19T01:25:54.495Z,3.90
2019-03-19T01:28:08.282Z,3.80
2019-03-19T01:30:34.695Z,3.80
2019-03-19T01:33:01.100Z,3.70
2019-03-19T01:35:28.619Z,3.80
2019-03-19T01:37:55.012Z,3.60
2019-03-19T01:40:21.434Z,3.60
2019-03-19T01:42:47.862Z,3.60
2019-03-19T01:45:14.237Z,3.50
2019-03-19T01:47:41.644Z,3.50
2019-03-19T01:50:12.420Z,3.50
2019-03-19T01:52:38.833Z,3.40
2019-03-19T01:55:10.308Z,3.40
2019-03-19T01:57:36.686Z,3.30
2019-03-19T02:00:06.537Z,3.30
2019-03-19T02:02:32.916Z,3.30
2019-03-19T02:04:59.262Z,3.30
2019-03-19T02:07:25.673Z,3.30
2019-03-19T02:09:53.076Z,3.30
2019-03-19T02:12:19.477Z,3.30
2019-03-19T02:14:45.914Z,3.30
2019-03-19T02:17:12.764Z,3.20
2019-03-19T02:19:39.595Z,3.30
2019-03-19T02:22:06.004Z,3.20
2019-03-19T02:24:32.435Z,3.30
2019-03-19T02:26:58.857Z,3.30
2019-03-19T02:29:25.265Z,3.30
2019-03-19T02:31:51.717Z,3.30
2019-03-19T02:34:18.138Z,3.30
2019-03-19T02:36:44.574Z,3.30
2019-03-19T02:39:11.072Z,3.30
2019-03-19T02:41:37.494Z,3.40
2019-03-19T02:44:04.048Z,3.50
2019-03-19T02:46:30.518Z,3.60
2019-03-19T02:48:56.906Z,3.60
2019-03-19T02:51:23.330Z,3.70
2019-03-19T02:53:49.702Z,3.70
2019-03-19T02:56:31.379Z,3.70
2019-03-19T02:58:44.660Z,3.70
2019-03-19T03:01:11.082Z,3.80
2019-03-19T03:03:37.505Z,3.80
2019-03-19T03:06:03.818Z,3.80
2019-03-19T03:08:30.238Z,3.80
2019-03-19T03:10:57.661Z,3.80
2019-03-19T03:13:24.063Z,3.80
2019-03-19T03:15:50.426Z,3.80
2019-03-19T03:18:16.951Z,3.80
2019-03-19T03:20:43.357Z,3.80
2019-03-19T03:23:09.797Z,3.90
2019-03-19T03:25:36.249Z,3.80
2019-03-19T03:28:02.901Z,3.80
2019-03-19T03:30:29.352Z,3.80
2019-03-19T03:32:55.769Z,3.80
2019-03-19T03:35:22.377Z,3.90
2019-03-19T03:37:48.830Z,3.90
2019-03-19T03:40:16.512Z,3.90
2019-03-19T03:42:43.495Z,3.90
2019-03-19T03:45:11.752Z,3.90
2019-03-19T03:47:38.155Z,3.90
2019-03-19T03:50:08.232Z,3.90
2019-03-19T03:52:34.719Z,4.00
2019-03-19T03:55:01.170Z,3.90
2019-03-19T03:57:27.609Z,3.90
2019-03-19T03:59:54.049Z,4.00
2019-03-19T04:02:20.425Z,4.00
2019-03-19T04:04:46.829Z,4.10
2019-03-19T04:07:13.235Z,4.00
2019-03-19T04:09:39.663Z,4.10
2019-03-19T04:12:06.099Z,4.10
2019-03-19T04:14:32.542Z,4.10
2019-03-19T04:16:59.016Z,4.10
2019-03-19T04:19:25.426Z,4.10
2019-03-19T04:21:51.846Z,4.20
2019-03-19T04:24:18.260Z,4.20
2019-03-19T04:26:44.663Z,4.20
2019-03-19T04:29:11.084Z,4.20
2019-03-19T04:31:37.537Z,4.20
2019-03-19T04:34:03.941Z,4.20
2019-03-19T04:36:30.379Z,4.20
2019-03-19T04:38:56.831Z,4.20
2019-03-19T04:41:23.238Z,4.20
2019-03-19T04:43:50.745Z,4.20
2019-03-19T04:46:17.158Z,4.20
2019-03-19T04:48:43.490Z,4.20
2019-03-19T04:51:09.905Z,4.10
2019-03-19T04:53:36.269Z,4.10
2019-03-19T04:56:02.866Z,4.00
2019-03-19T04:58:29.262Z,4.00
2019-03-19T05:00:55.655Z,3.90
2019-03-19T05:03:22.079Z,3.90
2019-03-19T05:05:48.486Z,3.80
2019-03-19T05:08:14.961Z,3.70
2019-03-19T05:10:41.355Z,3.70
2019-03-19T05:13:07.801Z,3.60
2019-03-19T05:15:34.269Z,3.60
2019-03-19T05:18:00.668Z,3.60
2019-03-19T05:20:27.102Z,3.70
2019-03-19T05:22:53.548Z,3.70
2019-03-19T05:25:19.944Z,3.80
2019-03-19T05:27:46.414Z,3.90
2019-03-19T05:30:17.036Z,4.00
2019-03-19T05:32:43.450Z,4.10
2019-03-19T05:35:09.853Z,4.10
2019-03-19T05:37:37.351Z,4.10
2019-03-19T05:40:15.245Z,4.10
2019-03-19T05:42:41.752Z,4.20
2019-03-19T05:45:12.205Z,4.20
2019-03-19T05:47:40.517Z,4.30
2019-03-19T05:50:09.726Z,4.30
2019-03-19T05:52:37.140Z,4.30
2019-03-19T05:55:05.357Z,4.30
2019-03-19T05:57:31.791Z,4.40
2019-03-19T05:59:58.205Z,4.40
2019-03-19T06:02:25.347Z,4.40
2019-03-19T06:04:51.748Z,4.40
2019-03-19T06:07:18.161Z,4.50
2019-03-19T06:09:44.552Z,4.60
2019-03-19T06:12:10.964Z,4.60
2019-03-19T06:14:37.364Z,4.70
2019-03-19T06:17:03.811Z,4.80
2019-03-19T06:19:30.226Z,4.80
2019-03-19T06:21:56.914Z,4.90
2019-03-19T06:24:23.473Z,4.90
2019-03-19T06:26:50.025Z,5.30
2019-03-19T06:29:16.487Z,5.90
2019-03-19T06:31:42.936Z,6.30
2019-03-19T06:34:09.339Z,6.60
2019-03-19T06:36:35.812Z,6.70
2019-03-19T06:39:04.782Z,6.50
2019-03-19T06:41:31.266Z,6.40
2019-03-19T06:43:57.647Z,6.30
2019-03-19T06:46:24.080Z,6.10
2019-03-19T06:48:50.570Z,5.90
2019-03-19T06:51:17.735Z,5.80
2019-03-19T06:53:44.175Z,5.90
2019-03-19T06:56:10.676Z,5.80
2019-03-19T06:58:37.072Z,5.90
2019-03-19T07:01:03.542Z,6.60
2019-03-19T07:03:29.965Z,7.80
2019-03-19T07:05:56.435Z,9.00
2019-03-19T07:08:22.817Z,9.40
2019-03-19T07:10:49.252Z,10.60
2019-03-19T07:13:15.698Z,11.20
2019-03-19T07:15:42.121Z,11.40
2019-03-19T07:18:08.531Z,11.20
2019-03-19T07:20:34.958Z,11.60
2019-03-19T07:23:01.411Z,11.60
2019-03-19T07:25:27.812Z,11.60
2019-03-19T07:27:54.486Z,11.50
2019-03-19T07:30:22.162Z,12.00
2019-03-19T07:32:48.582Z,12.30
2019-03-19T07:35:16.022Z,12.20
2019-03-19T07:37:42.429Z,12.40
2019-03-19T07:40:13.507Z,12.70
2019-03-19T07:42:40.034Z,13.30
2019-03-19T07:45:09.723Z,14.00
2019-03-19T07:47:36.169Z,14.00
2019-03-19T07:50:05.688Z,14.20
2019-03-19T07:52:32.061Z,14.60
2019-03-19T07:54:58.517Z,14.10
2019-03-19T07:57:24.926Z,14.00
2019-03-19T07:59:51.273Z,14.40
2019-03-19T08:02:17.688Z,14.80
2019-03-19T08:04:44.090Z,15.20
2019-03-19T08:07:11.237Z,15.20
2019-03-19T08:09:37.724Z,15.30
2019-03-19T08:12:04.346Z,15.10
2019-03-19T08:14:30.671Z,15.30
2019-03-19T08:16:57.086Z,15.50
2019-03-19T08:19:23.453Z,15.70
2019-03-19T08:21:49.910Z,16.50
2019-03-19T08:24:16.359Z,16.60
2019-03-19T08:26:42.846Z,16.20
2019-03-19T08:29:09.237Z,16.10
2019-03-19T08:31:35.582Z,16.90
2019-03-19T08:34:01.952Z,17.70
2019-03-19T08:36:28.409Z,18.00
2019-03-19T08:38:54.885Z,17.40
2019-03-19T08:41:21.304Z,17.30
2019-03-19T08:43:48.745Z,17.40
2019-03-19T08:46:15.170Z,17.50
2019-03-19T08:48:41.504Z,17.50
2019-03-19T08:51:07.905Z,18.00
2019-03-19T08:53:34.239Z,17.30
2019-03-19T08:56:01.176Z,16.00
2019-03-19T08:58:27.526Z,14.80
2019-03-19T09:00:53.935Z,13.80
2019-03-19T09:03:20.272Z,14.30
2019-03-19T09:05:46.764Z,15.30
2019-03-19T09:08:13.090Z,16.30
2019-03-19T09:10:39.558Z,16.50
2019-03-19T09:13:06.083Z,16.10
2019-03-19T09:15:32.551Z,16.30
2019-03-19T09:17:58.974Z,16.60
2019-03-19T09:20:25.385Z,16.70
2019-03-19T09:22:51.818Z,16.20
2019-03-19T09:25:18.215Z,16.00
2019-03-19T09:27:44.770Z,16.50
2019-03-19T09:30:18.176Z,16.80
2019-03-19T09:32:44.623Z,16.40
2019-03-19T09:35:11.045Z,16.80
2019-03-19T09:37:44.107Z,17.40
2019-03-19T09:40:09.477Z,17.60
2019-03-19T09:42:35.849Z,18.00
2019-03-19T09:45:04.777Z,18.90
2019-03-19T09:47:31.412Z,17.90
2019-03-19T09:49:58.923Z,17.30
2019-03-19T09:52:25.721Z,15.80
2019-03-19T09:54:52.769Z,16.00
2019-03-19T09:57:19.336Z,16.40
2019-03-19T09:59:45.768Z,17.20
2019-03-19T10:02:12.166Z,16.80
2019-03-19T10:04:38.581Z,16.80
2019-03-19T10:07:06.271Z,17.10
2019-03-19T10:09:33.068Z,17.40
2019-03-19T10:11:59.476Z,17.90
2019-03-19T10:14:25.880Z,18.40
2019-03-19T10:16:52.347Z,18.70
2019-03-19T10:19:18.749Z,19.20
2019-03-19T10:21:45.147Z,20.20
2019-03-19T10:24:11.597Z,19.80
2019-03-19T10:26:38.238Z,18.80
2019-03-19T10:29:04.709Z,18.30
2019-03-19T10:31:31.100Z,19.10
2019-03-19T10:33:57.599Z,19.10
2019-03-19T10:36:24.048Z,19.50
2019-03-19T10:38:50.774Z,19.50
2019-03-19T10:41:17.369Z,20.70
2019-03-19T10:43:44.151Z,20.90
2019-03-19T10:46:10.636Z,20.50
2019-03-19T10:48:37.484Z,20.40
2019-03-19T10:51:04.099Z,20.30
2019-03-19T10:53:30.554Z,20.60
2019-03-19T10:55:58.119Z,19.00
2019-03-19T10:58:24.626Z,17.30
2019-03-19T11:00:51.063Z,16.80
2019-03-19T11:03:17.521Z,16.10
2019-03-19T11:05:43.904Z,14.90
2019-03-19T11:08:10.348Z,14.60
2019-03-19T11:10:36.825Z,15.60
2019-03-19T11:13:03.411Z,16.50
2019-03-19T11:15:31.588Z,17.60
2019-03-19T11:17:58.126Z,18.90
2019-03-19T11:20:24.887Z,19.20
2019-03-19T11:22:51.572Z,19.30
2019-03-19T11:25:28.460Z,19.50
2019-03-19T11:27:54.889Z,19.50
2019-03-19T11:30:22.649Z,20.30
2019-03-19T11:32:49.145Z,20.00
2019-03-19T11:35:15.863Z,18.90
2019-03-19T11:37:42.397Z,18.10
2019-03-19T11:40:14.674Z,16.80
2019-03-19T11:42:41.144Z,15.60
2019-03-19T11:45:16.113Z,14.50
2019-03-19T11:47:42.681Z,13.60
2019-03-19T11:50:14.756Z,13.20
2019-03-19T11:52:41.179Z,12.90
2019-03-19T11:55:10.117Z,12.60
2019-03-19T11:57:36.516Z,12.70
2019-03-19T12:00:26.005Z,12.40
2019-03-19T12:02:52.395Z,12.20
2019-03-19T12:05:18.835Z,12.00
2019-03-19T12:07:45.247Z,12.80
2019-03-19T12:10:11.753Z,12.50
2019-03-19T12:12:38.149Z,12.40
2019-03-19T12:15:08.737Z,12.10
2019-03-19T12:17:35.145Z,11.70
2019-03-19T12:20:03.734Z,11.30
2019-03-19T12:22:30.236Z,11.10
2019-03-19T12:24:56.709Z,11.00
2019-03-19T12:27:24.311Z,11.10
2019-03-19T12:29:50.861Z,11.40
2019-03-19T12:32:17.365Z,11.60
2019-03-19T12:34:43.797Z,11.50
2019-03-19T12:37:10.225Z,11.40
2019-03-19T12:39:36.659Z,11.30
2019-03-19T12:42:03.093Z,11.40
2019-03-19T12:44:29.571Z,12.90
2019-03-19T12:46:55.980Z,14.40
2019-03-19T12:49:22.417Z,15.90
2019-03-19T12:51:48.887Z,17.20
2019-03-19T12:54:15.388Z,17.60
2019-03-19T12:56:42.964Z,16.30
2019-03-19T12:59:19.875Z,15.30
2019-03-19T13:01:38.406Z,15.40
2019-03-19T13:04:04.983Z,16.30
2019-03-19T13:06:31.446Z,16.40
2019-03-19T13:08:58.909Z,16.20
2019-03-19T13:11:26.236Z,14.80
2019-03-19T13:13:52.782Z,13.80
2019-03-19T13:16:19.815Z,13.10
2019-03-19T13:18:46.317Z,12.40
2019-03-19T13:21:12.700Z,11.70
2019-03-19T13:23:39.107Z,11.30
2019-03-19T13:26:05.465Z,11.00
2019-03-19T13:28:32.889Z,10.70
2019-03-19T13:30:59.413Z,10.30
2019-03-19T13:33:25.801Z,10.10
2019-03-19T13:35:52.198Z,9.80
2019-03-19T13:38:18.672Z,9.50
2019-03-19T13:40:45.100Z,9.30
2019-03-19T13:43:11.537Z,9.10
2019-03-19T13:45:37.968Z,8.80
2019-03-19T13:48:04.401Z,8.30
2019-03-19T13:50:30.807Z,8.30
2019-03-19T13:52:57.261Z,8.30
2019-03-19T13:55:23.608Z,8.40
2019-03-19T13:57:50.111Z,8.50
2019-03-19T14:00:17.453Z,8.50
2019-03-19T14:02:44.094Z,8.50
2019-03-19T14:05:11.835Z,8.50
2019-03-19T14:07:38.669Z,8.60
2019-03-19T14:10:15.537Z,8.70
2019-03-19T14:12:42.113Z,8.90
2019-03-19T14:15:15.077Z,9.10
2019-03-19T14:17:42.712Z,9.70
2019-03-19T14:20:14.179Z,10.10
2019-03-19T14:22:40.807Z,10.90
2019-03-19T14:25:08.769Z,11.90
2019-03-19T14:27:35.201Z,12.40
2019-03-19T14:30:01.738Z,12.70
2019-03-19T14:32:29.305Z,12.50
2019-03-19T14:34:55.702Z,12.10
2019-03-19T14:37:22.091Z,11.60
2019-03-19T14:39:48.484Z,11.30
2019-03-19T14:42:14.823Z,11.20
2019-03-19T14:44:41.233Z,10.90
2019-03-19T14:47:07.566Z,10.90
2019-03-19T14:49:33.988Z,11.00
2019-03-19T14:52:00.320Z,11.00
2019-03-19T14:54:26.730Z,10.90
2019-03-19T14:56:53.137Z,10.60
2019-03-19T14:59:19.579Z,10.40
2019-03-19T15:01:46.064Z,10.30
2019-03-19T15:04:12.486Z,10.10
2019-03-19T15:06:38.901Z,10.00
2019-03-19T15:09:05.422Z,10.10
2019-03-19T15:11:32.112Z,10.00
2019-03-19T15:13:58.562Z,9.80
2019-03-19T15:16:25.002Z,9.80
2019-03-19T15:18:51.546Z,9.70
2019-03-19T15:21:18.018Z,9.70
2019-03-19T15:23:45.499Z,9.60
2019-03-19T15:26:12.046Z,9.60
2019-03-19T15:28:38.409Z,9.50
2019-03-19T15:31:04.842Z,9.50
2019-03-19T15:33:31.218Z,9.40
2019-03-19T15:35:58.593Z,9.40
2019-03-19T15:38:25.008Z,9.30
2019-03-19T15:40:51.476Z,9.30
2019-03-19T15:43:17.984Z,9.20
2019-03-19T15:45:44.448Z,9.10
2019-03-19T15:48:10.921Z,9.10
2019-03-19T15:50:37.342Z,8.90
2019-03-19T15:53:03.915Z,8.80
2019-03-19T15:55:30.285Z,8.70
2019-03-19T15:57:56.820Z,8.60
2019-03-19T16:00:23.169Z,8.60
2019-03-19T16:02:49.636Z,8.50
2019-03-19T16:05:16.088Z,8.50
2019-03-19T16:07:42.543Z,8.50
2019-03-19T16:10:17.560Z,8.60
2019-03-19T16:12:44.088Z,8.60
2019-03-19T16:15:12.536Z,8.60
2019-03-19T16:17:38.965Z,8.70
2019-03-19T16:20:09.191Z,8.70
2019-03-19T16:22:35.587Z,8.70
2019-03-19T16:25:02.004Z,8.60
2019-03-19T16:27:28.437Z,8.60
2019-03-19T16:29:54.816Z,8.40
2019-03-19T16:32:21.163Z,8.40
2019-03-19T16:34:47.607Z,8.30
2019-03-19T16:37:14.011Z,8.10
2019-03-19T16:39:40.435Z,8.00
2019-03-19T16:42:06.755Z,7.90
2019-03-19T16:44:33.161Z,7.70
2019-03-19T16:46:59.552Z,7.60
2019-03-19T16:49:25.999Z,7.50
2019-03-19T16:51:52.405Z,7.50
2019-03-19T16:54:18.811Z,7.40
2019-03-19T16:56:45.266Z,7.40
2019-03-19T16:59:11.772Z,7.20
2019-03-19T17:01:38.224Z,7.20
2019-03-19T17:04:04.641Z,7.30
2019-03-19T17:06:31.148Z,7.30
2019-03-19T17:08:57.590Z,7.20
2019-03-19T17:11:24.014Z,7.20
2019-03-19T17:13:50.545Z,7.10
2019-03-19T17:16:17.026Z,7.10
2019-03-19T17:18:43.550Z,7.00
2019-03-19T17:21:09.983Z,6.90
2019-03-19T17:23:36.423Z,6.80
2019-03-19T17:26:02.994Z,6.80
2019-03-19T17:28:30.635Z,6.70
2019-03-19T17:30:57.073Z,6.70
2019-03-19T17:33:23.683Z,6.60
2019-03-19T17:35:50.125Z,6.50
2019-03-19T17:38:16.590Z,6.50
2019-03-19T17:40:43.034Z,6.50
2019-03-19T17:43:09.541Z,6.40
2019-03-19T17:45:36.033Z,6.30
2019-03-19T17:48:02.803Z,6.20
2019-03-19T17:50:31.944Z,6.10
2019-03-19T17:52:58.455Z,6.10
2019-03-19T17:55:25.311Z,6.00
2019-03-19T17:57:52.047Z,5.90
2019-03-19T18:00:21.612Z,5.80
2019-03-19T18:02:48.143Z,5.70
2019-03-19T18:05:14.793Z,5.60
2019-03-19T18:07:41.153Z,5.40
2019-03-19T18:10:12.777Z,5.40
2019-03-19T18:12:40.526Z,5.30
2019-03-19T18:15:13.047Z,5.20
2019-03-19T18:17:39.582Z,5.10
2019-03-19T18:20:10.999Z,5.10
2019-03-19T18:22:37.470Z,5.10
2019-03-19T18:25:05.964Z,5.10
2019-03-19T18:27:32.444Z,5.00
2019-03-19T18:29:58.986Z,4.90
2019-03-19T18:32:34.679Z,4.90
2019-03-19T18:34:53.942Z,4.90
2019-03-19T18:37:20.389Z,4.90
2019-03-19T18:39:46.941Z,4.90
2019-03-19T18:42:13.446Z,4.80
2019-03-19T18:44:41.495Z,4.90
2019-03-19T18:47:08.000Z,4.90
2019-03-19T18:49:34.581Z,4.90
2019-03-19T18:52:01.040Z,4.90
2019-03-19T18:54:27.616Z,5.00
2019-03-19T18:56:54.114Z,5.10
2019-03-19T18:59:20.467Z,5.10
2019-03-19T19:01:46.940Z,5.00
2019-03-19T19:04:13.330Z,4.90
2019-03-19T19:06:39.850Z,4.80
2019-03-19T19:09:07.037Z,4.70
2019-03-19T19:11:33.548Z,4.60
2019-03-19T19:14:00.034Z,4.60
2019-03-19T19:16:26.627Z,4.50
2019-03-19T19:18:53.005Z,4.50
2019-03-19T19:21:19.484Z,4.50
2019-03-19T19:23:45.862Z,4.50
2019-03-19T19:26:12.581Z,4.60
2019-03-19T19:28:39.535Z,4.60
2019-03-19T19:31:06.135Z,4.60
2019-03-19T19:33:32.553Z,4.60
2019-03-19T19:35:59.039Z,4.60
2019-03-19T19:38:25.460Z,4.40
2019-03-19T19:40:51.871Z,4.40
2019-03-19T19:43:18.475Z,4.30
2019-03-19T19:45:45.369Z,4.20
2019-03-19T19:48:11.838Z,4.00
2019-03-19T19:50:38.290Z,4.00
2019-03-19T19:53:04.691Z,3.90
2019-03-19T19:55:31.166Z,3.90
2019-03-19T19:57:57.619Z,3.90
2019-03-19T20:00:24.102Z,3.90
2019-03-19T20:02:50.981Z,3.80
2019-03-19T20:05:17.699Z,3.80
2019-03-19T20:07:44.481Z,3.70
2019-03-19T20:10:19.629Z,3.60
2019-03-19T20:12:46.125Z,3.60
2019-03-19T20:15:12.567Z,3.70
2019-03-19T20:17:38.961Z,3.70
2019-03-19T20:20:12.296Z,3.70
2019-03-19T20:22:38.745Z,3.80
2019-03-19T20:25:05.855Z,3.80
2019-03-19T20:27:32.279Z,3.70
2019-03-19T20:29:58.933Z,3.70
2019-03-19T20:32:25.340Z,3.50
2019-03-19T20:34:51.991Z,3.50
2019-03-19T20:37:18.720Z,3.40
2019-03-19T20:39:45.209Z,3.50
2019-03-19T20:42:11.697Z,3.40
2019-03-19T20:44:38.213Z,3.40
2019-03-19T20:47:04.865Z,3.30
2019-03-19T20:49:31.505Z,3.30
2019-03-19T20:51:58.004Z,3.30
2019-03-19T20:54:24.488Z,3.20
2019-03-19T20:56:50.925Z,3.30
2019-03-19T20:59:17.338Z,3.20
2019-03-19T21:01:43.705Z,3.00
2019-03-19T21:04:10.134Z,3.00
2019-03-19T21:06:36.605Z,3.00
2019-03-19T21:09:05.985Z,2.90
2019-03-19T21:11:32.720Z,2.90
2019-03-19T21:13:59.159Z,2.90
2019-03-19T21:16:25.598Z,2.90
2019-03-19T21:18:51.966Z,2.90
2019-03-19T21:21:18.406Z,2.80
2019-03-19T21:23:44.806Z,2.80
2019-03-19T21:26:11.303Z,2.80
2019-03-19T21:28:37.744Z,2.80
2019-03-19T21:31:04.246Z,2.80
2019-03-19T21:33:30.717Z,2.80
2019-03-19T21:35:57.251Z,2.90
2019-03-19T21:38:23.727Z,2.80
2019-03-19T21:40:50.355Z,2.90
2019-03-19T21:43:16.842Z,2.90
2019-03-19T21:45:43.327Z,2.80
2019-03-19T21:48:09.823Z,2.60
2019-03-19T21:50:36.314Z,2.40
2019-03-19T21:53:02.797Z,2.40
2019-03-19T21:55:29.408Z,2.50
2019-03-19T21:57:57.006Z,2.40
2019-03-19T22:00:24.933Z,2.40
2019-03-19T22:02:51.466Z,2.30
2019-03-19T22:05:18.002Z,2.30
2019-03-19T22:07:44.433Z,2.20
2019-03-19T22:10:14.531Z,2.30
2019-03-19T22:12:41.013Z,2.10
2019-03-19T22:15:20.881Z,1.90
2019-03-19T22:17:47.307Z,1.80
2019-03-19T22:20:14.169Z,1.80
2019-03-19T22:22:40.612Z,1.80
2019-03-19T22:25:11.691Z,1.70
2019-03-19T22:27:38.116Z,1.80
2019-03-19T22:30:15.142Z,1.60
2019-03-19T22:32:41.538Z,1.50
2019-03-19T22:35:08.198Z,1.40
2019-03-19T22:37:34.602Z,1.30
2019-03-19T22:40:01.002Z,1.20
2019-03-19T22:42:27.354Z,1.20
2019-03-19T22:44:53.814Z,1.10
2019-03-19T22:47:20.197Z,1.10
2019-03-19T22:49:46.654Z,1.00
2019-03-19T22:52:13.124Z,1.00
2019-03-19T22:54:39.513Z,0.90
2019-03-19T22:57:05.935Z,0.90
2019-03-19T22:59:32.366Z,0.90
2019-03-19T23:01:58.963Z,0.90
2019-03-19T23:04:27.500Z,0.80
2019-03-19T23:06:53.552Z,0.80
2019-03-19T23:09:19.893Z,0.80
2019-03-19T23:11:46.301Z,0.90
2019-03-19T23:14:12.677Z,0.90
2019-03-19T23:16:39.153Z,0.90
2019-03-19T23:19:06.875Z,0.80
2019-03-19T23:21:33.411Z,0.80
2019-03-19T23:23:59.854Z,0.80
2019-03-19T23:26:26.370Z,0.80
2019-03-19T23:28:52.841Z,0.80
2019-03-19T23:31:19.323Z,0.80
2019-03-19T23:33:45.712Z,0.80
2019-03-19T23:36:12.191Z,0.70
2019-03-19T23:38:38.702Z,0.80
2019-03-19T23:41:05.094Z,0.70
2019-03-19T23:43:31.453Z,0.70
2019-03-19T23:45:57.857Z,0.70
2019-03-19T23:48:24.173Z,0.70
2019-03-19T23:50:50.598Z,0.70
2019-03-19T23:53:16.971Z,0.60
2019-03-19T23:55:43.380Z,0.60
2019-03-19T23:58:09.759Z,0.60
